Terminal Aerodrome Forecast
Issued by NWS

Home | Current Version | Previous Version | Text Only | Print | Product List | Glossary On
Versions: 1 2 3 4 5 6 7 8 9 10 11 12
731
FTUS44 KTSA 221741
TAFMLC
TAF
KMLC 221741Z 2218/2318 VRB03KT P6SM SCT040 SCT110
      TEMPO 2223/2301 2SM +TSRA BKN050CB
     FM230100 03004KT P6SM VCTS BKN050CB OVC100
      TEMPO 2301/2305 3SM -TSRA BKN050CB
     FM230500 03003KT 5SM BR VCSH OVC050
     FM231200 02004KT P6SM OVC040=

USA.gov is the U.S. government's official web portal to all federal, state and local government web resources and services.